sensor_id;sensor_type;location;lat;lon;timestamp;pressure;altitude;pressure_sealevel;temperature;humidity
7824;BME280;3957;48.61947800;9.05303100;2023-07-20T00:00:32;96016.09;;;15.99;82.58
7824;BME280;3957;48.61947800;9.05303100;2023-07-20T00:01:34;96012.13;;;16.02;82.05
7824;BME280;3957;48.61947800;9.05303100;2023-07-20T00:02:36;96015.31;;;15.98;82.29
7824;BME280;3957;48.61947800;9.05303100;2023-07-20T00:03:37;96008.25;;;15.97;82.11
7824;BME280;3957;48.61947800;9.05303100;2023-07-20T00:04:39;96012.50;;;15.93;82.47
7824;BME280;3957;48.61947800;9.05303100;2023-07-20T00:05:40;96006.53;;;15.91;82.17
7824;BME280;3957;48.61947800;9.05303100;2023-07-20T00:06:42;96011.34;;;15.89;83.30
7824;BME280;3957;48.61947800;9.05303100;2023-07-20T00:07:44;96011.56;;;15.88;83.07
7824;BME280;3957;48.61947800;9.05303100;2023-07-20T00:08:45;96004.22;;;15.83;83.33
7824;BME280;3957;48.61947800;9.05303100;2023-07-20T00:09:47;96018.50;;;15.84;82.51
7824;BME280;3957;48.61947800;9.05303100;2023-07-20T00:10:49;96007.72;;;15.84;82.56
7824;BME280;3957;48.61947800;9.05303100;2023-07-20T00:11:52;96008.81;;;15.83;82.02
7824;BME280;3957;48.61947800;9.05303100;2023-07-20T00:12:53;96011.00;;;15.86;81.73
7824;BME280;3957;48.61947800;9.05303100;2023-07-20T00:13:55;96013.72;;;15.86;81.61
7824;BME280;3957;48.61947800;9.05303100;2023-07-20T00:14:56;96007.47;;;15.85;80.63
7824;BME280;3957;48.61947800;9.05303100;2023-07-20T00:15:58;96007.47;;;15.85;80.48
7824;BME280;3957;48.61947800;9.05303100;2023-07-20T00:16:59;96011.25;;;15.84;80.60
7824;BME280;3957;48.61947800;9.05303100;2023-07-20T00:18:01;96006.31;;;15.81;80.90
7824;BME280;3957;48.61947800;9.05303100;2023-07-20T00:19:03;96007.16;;;15.81;80.94
7824;BME280;3957;48.61947800;9.05303100;2023-07-20T00:20:06;96007.41;;;15.80;81.63
7824;BME280;3957;48.61947800;9.05303100;2023-07-20T00:21:08;96006.75;;;15.78;81.96
7824;BME280;3957;48.61947800;9.05303100;2023-07-20T00:22:10;96006.91;;;15.71;81.15
7824;BME280;3957;48.61947800;9.05303100;2023-07-20T00:23:12;96008.78;;;15.71;81.30
7824;BME280;3957;48.61947800;9.05303100;2023-07-20T00:24:13;96013.81;;;15.67;81.26
7824;BME280;3957;48.61947800;9.05303100;2023-07-20T00:25:15;96009.25;;;15.68;81.23
7824;BME280;3957;48.61947800;9.05303100;2023-07-20T00:26:17;96010.06;;;15.68;80.79
7824;BME280;3957;48.61947800;9.05303100;2023-07-20T00:27:20;96006.56;;;15.68;80.31
7824;BME280;3957;48.61947800;9.05303100;2023-07-20T00:28:21;96002.59;;;15.70;80.55
7824;BME280;3957;48.61947800;9.05303100;2023-07-20T00:29:23;96000.69;;;15.71;80.52
7824;BME280;3957;48.61947800;9.05303100;2023-07-20T00:30:24;96006.75;;;15.78;78.98
7824;BME280;3957;48.61947800;9.05303100;2023-07-20T00:31:26;96006.75;;;15.78;78.82
7824;BME280;3957;48.61947800;9.05303100;2023-07-20T00:32:28;96013.22;;;15.77;79.14
7824;BME280;3957;48.61947800;9.05303100;2023-07-20T00:33:31;96014.84;;;15.78;78.82
7824;BME280;3957;48.61947800;9.05303100;2023-07-20T00:34:33;96010.41;;;15.84;77.93
7824;BME280;3957;48.61947800;9.05303100;2023-07-20T00:35:34;96009.22;;;15.91;77.75
7824;BME280;3957;48.61947800;9.05303100;2023-07-20T00:36:36;96013.66;;;15.97;78.08
7824;BME280;3957;48.61947800;9.05303100;2023-07-20T00:37:38;96007.22;;;15.98;77.17
7824;BME280;3957;48.61947800;9.05303100;2023-07-20T00:38:40;96003.69;;;15.98;77.30
7824;BME280;3957;48.61947800;9.05303100;2023-07-20T00:39:43;96008.25;;;15.97;77.25
7824;BME280;3957;48.61947800;9.05303100;2023-07-20T00:40:44;96011.88;;;16.03;76.94
7824;BME280;3957;48.61947800;9.05303100;2023-07-20T00:41:46;96003.78;;;16.03;76.80
7824;BME280;3957;48.61947800;9.05303100;2023-07-20T00:42:48;95991.69;;;16.06;76.66
7824;BME280;3957;48.61947800;9.05303100;2023-07-20T00:43:55;95998.16;;;16.05;77.32
7824;BME280;3957;48.61947800;9.05303100;2023-07-20T00:44:57;95999.47;;;16.02;77.11
7824;BME280;3957;48.61947800;9.05303100;2023-07-20T00:45:59;96002.97;;;16.03;77.22
7824;BME280;3957;48.61947800;9.05303100;2023-07-20T00:47:00;95999.34;;;15.97;77.22
7824;BME280;3957;48.61947800;9.05303100;2023-07-20T00:48:04;96006.19;;;15.88;77.93
7824;BME280;3957;48.61947800;9.05303100;2023-07-20T00:49:05;96001.63;;;15.88;77.62
7824;BME280;3957;48.61947800;9.05303100;2023-07-20T00:50:08;96011.25;;;15.84;78.08
7824;BME280;3957;48.61947800;9.05303100;2023-07-20T00:51:12;96006.31;;;15.81;78.18
7824;BME280;3957;48.61947800;9.05303100;2023-07-20T00:52:14;96003.97;;;15.85;78.49
7824;BME280;3957;48.61947800;9.05303100;2023-07-20T00:53:17;96002.00;;;15.80;78.16
7824;BME280;3957;48.61947800;9.05303100;2023-07-20T00:54:18;96002.31;;;15.84;77.98
7824;BME280;3957;48.61947800;9.05303100;2023-07-20T00:55:20;96001.50;;;15.83;77.64
7824;BME280;3957;48.61947800;9.05303100;2023-07-20T00:56:22;96007.41;;;15.80;78.07
7824;BME280;3957;48.61947800;9.05303100;2023-07-20T00:57:24;96016.50;;;15.79;78.19
7824;BME280;3957;48.61947800;9.05303100;2023-07-20T00:58:27;96005.97;;;15.77;77.92
7824;BME280;3957;48.61947800;9.05303100;2023-07-20T00:59:29;96007.00;;;15.76;77.81
7824;BME280;3957;48.61947800;9.05303100;2023-07-20T01:00:31;96005.97;;;15.77;78.01
7824;BME280;3957;48.61947800;9.05303100;2023-07-20T01:01:32;96006.31;;;15.81;77.56
7824;BME280;3957;48.61947800;9.05303100;2023-07-20T01:02:34;96004.91;;;15.78;77.07
7824;BME280;3957;48.61947800;9.05303100;2023-07-20T01:03:36;96006.56;;;15.79;77.07
7824;BME280;3957;48.61947800;9.05303100;2023-07-20T01:04:38;96005.34;;;15.75;77.68
7824;BME280;3957;48.61947800;9.05303100;2023-07-20T01:05:44;96003.16;;;15.72;76.99
7824;BME280;3957;48.61947800;9.05303100;2023-07-20T01:07:12;96006.09;;;15.71;77.44
7824;BME280;3957;48.61947800;9.05303100;2023-07-20T01:08:24;96010.31;;;15.67;77.27
7824;BME280;3957;48.61947800;9.05303100;2023-07-20T01:09:33;96013.81;;;15.67;77.17
7824;BME280;3957;48.61947800;9.05303100;2023-07-20T01:10:50;96014.31;;;15.64;77.29
7824;BME280;3957;48.61947800;9.05303100;2023-07-20T01:12:09;96010.31;;;15.67;77.90
7824;BME280;3957;48.61947800;9.05303100;2023-07-20T01:13:14;96009.25;;;15.68;77.06
7824;BME280;3957;48.61947800;9.05303100;2023-07-20T01:14:16;96003.88;;;15.68;77.14
7824;BME280;3957;48.61947800;9.05303100;2023-07-20T01:15:18;96009.84;;;15.70;76.66
7824;BME280;3957;48.61947800;9.05303100;2023-07-20T01:16:20;96005.03;;;15.72;77.07
7824;BME280;3957;48.61947800;9.05303100;2023-07-20T01:17:22;96012.28;;;15.71;76.66
7824;BME280;3957;48.61947800;9.05303100;2023-07-20T01:18:26;96014.53;;;15.74;77.55
7824;BME280;3957;48.61947800;9.05303100;2023-07-20T01:19:27;96008.91;;;15.76;76.64
7824;BME280;3957;48.61947800;9.05303100;2023-07-20T01:20:33;96006.75;;;15.78;76.55
7824;BME280;3957;48.61947800;9.05303100;2023-07-20T01:21:41;96004.31;;;15.76;75.90
7824;BME280;3957;48.61947800;9.05303100;2023-07-20T01:23:10;96010.44;;;15.72;76.34
7824;BME280;3957;48.61947800;9.05303100;2023-07-20T01:30:20;96000.69;;;15.59;77.32
7824;BME280;3957;48.61947800;9.05303100;2023-07-20T01:31:32;96001.44;;;15.54;77.38
7824;BME280;3957;48.61947800;9.05303100;2023-07-20T01:32:36;96007.53;;;15.50;77.63
7824;BME280;3957;48.61947800;9.05303100;2023-07-20T01:33:41;96000.97;;;15.45;77.43
7824;BME280;3957;48.61947800;9.05303100;2023-07-20T01:34:44;96006.13;;;15.47;77.26
7824;BME280;3957;48.61947800;9.05303100;2023-07-20T01:35:56;96004.59;;;15.39;78.02
7824;BME280;3957;48.61947800;9.05303100;2023-07-20T01:36:59;96010.47;;;15.36;78.06
7824;BME280;3957;48.61947800;9.05303100;2023-07-20T01:38:03;96003.81;;;15.39;77.79
7824;BME280;3957;48.61947800;9.05303100;2023-07-20T01:39:05;96004.59;;;15.39;77.77
7824;BME280;3957;48.61947800;9.05303100;2023-07-20T01:40:08;96002.41;;;15.36;77.86
7824;BME280;3957;48.61947800;9.05303100;2023-07-20T01:41:10;96000.50;;;15.37;77.74
7824;BME280;3957;48.61947800;9.05303100;2023-07-20T01:42:12;96003.91;;;15.32;78.25
7824;BME280;3957;48.61947800;9.05303100;2023-07-20T01:43:14;96003.56;;;15.28;78.44
7824;BME280;3957;48.61947800;9.05303100;2023-07-20T01:44:16;96006.38;;;15.22;78.74
7824;BME280;3957;48.61947800;9.05303100;2023-07-20T01:45:17;96004.63;;;15.16;79.29
7824;BME280;3957;48.61947800;9.05303100;2023-07-20T01:46:19;96000.88;;;15.17;79.47
7824;BME280;3957;48.61947800;9.05303100;2023-07-20T01:47:21;96002.66;;;15.11;79.95
7824;BME280;3957;48.61947800;9.05303100;2023-07-20T01:48:23;95992.31;;;15.08;80.04
7824;BME280;3957;48.61947800;9.05303100;2023-07-20T01:49:25;95995.25;;;15.06;80.49
7824;BME280;3957;48.61947800;9.05303100;2023-07-20T01:50:26;95987.75;;;15.08;80.36
7824;BME280;3957;48.61947800;9.05303100;2023-07-20T01:51:28;95989.97;;;15.00;80.82
7824;BME280;3957;48.61947800;9.05303100;2023-07-20T01:52:30;95995.59;;;14.98;81.14
7824;BME280;3957;48.61947800;9.05303100;2023-07-20T01:53:31;95990.44;;;14.96;81.83
7824;BME280;3957;48.61947800;9.05303100;2023-07-20T01:54:33;95993.16;;;14.85;82.22
7824;BME280;3957;48.61947800;9.05303100;2023-07-20T01:55:35;95997.38;;;14.81;82.50
7824;BME280;3957;48.61947800;9.05303100;2023-07-20T01:56:36;96001.81;;;14.75;83.37
7824;BME280;3957;48.61947800;9.05303100;2023-07-20T01:57:38;95999.31;;;14.73;83.01
7824;BME280;3957;48.61947800;9.05303100;2023-07-20T01:58:39;95993.50;;;14.76;82.69
7824;BME280;3957;48.61947800;9.05303100;2023-07-20T01:59:41;95999.56;;;14.72;83.10
7824;BME280;3957;48.61947800;9.05303100;2023-07-20T02:00:43;95996.88;;;14.72;83.07
7824;BME280;3957;48.61947800;9.05303100;2023-07-20T02:01:45;95996.06;;;14.71;83.03
7824;BME280;3957;48.61947800;9.05303100;2023-07-20T02:02:46;96000.03;;;14.69;83.24
7824;BME280;3957;48.61947800;9.05303100;2023-07-20T02:03:48;95996.16;;;14.65;83.70
7824;BME280;3957;48.61947800;9.05303100;2023-07-20T02:04:50;95994.72;;;14.62;84.28
7824;BME280;3957;48.61947800;9.05303100;2023-07-20T02:05:51;95999.75;;;14.58;84.34
7824;BME280;3957;48.61947800;9.05303100;2023-07-20T02:06:53;96001.28;;;14.54;84.71
7824;BME280;3957;48.61947800;9.05303100;2023-07-20T02:07:54;96000.19;;;14.55;84.75
7824;BME280;3957;48.61947800;9.05303100;2023-07-20T02:08:56;96000.09;;;14.50;85.09
7824;BME280;3957;48.61947800;9.05303100;2023-07-20T02:09:58;95997.25;;;14.45;85.45
7824;BME280;3957;48.61947800;9.05303100;2023-07-20T02:10:59;96004.31;;;14.46;86.19
7824;BME280;3957;48.61947800;9.05303100;2023-07-20T02:12:01;96003.22;;;14.47;85.91
7824;BME280;3957;48.61947800;9.05303100;2023-07-20T02:13:02;95998.16;;;14.39;86.73
7824;BME280;3957;48.61947800;9.05303100;2023-07-20T02:14:04;96002.16;;;14.36;87.11
7824;BME280;3957;48.61947800;9.05303100;2023-07-20T02:15:06;95997.00;;;14.35;86.69
7824;BME280;3957;48.61947800;9.05303100;2023-07-20T02:16:09;95997.69;;;14.30;86.87
7824;BME280;3957;48.61947800;9.05303100;2023-07-20T02:17:12;95995.00;;;14.30;87.29
7824;BME280;3957;48.61947800;9.05303100;2023-07-20T02:18:14;95997.22;;;14.33;87.08
7824;BME280;3957;48.61947800;9.05303100;2023-07-20T02:19:16;95998.41;;;14.37;86.90
7824;BME280;3957;48.61947800;9.05303100;2023-07-20T02:20:17;96006.13;;;14.34;87.33
7824;BME280;3957;48.61947800;9.05303100;2023-07-20T02:21:20;96004.72;;;14.31;87.00
7824;BME280;3957;48.61947800;9.05303100;2023-07-20T02:22:22;96001.41;;;14.29;86.83
7824;BME280;3957;48.61947800;9.05303100;2023-07-20T02:23:23;96003.78;;;14.25;86.78
7824;BME280;3957;48.61947800;9.05303100;2023-07-20T02:24:25;96003.41;;;14.22;87.21
7824;BME280;3957;48.61947800;9.05303100;2023-07-20T02:25:27;96003.84;;;14.19;87.42
7824;BME280;3957;48.61947800;9.05303100;2023-07-20T02:26:28;95996.59;;;14.19;87.82
7824;BME280;3957;48.61947800;9.05303100;2023-07-20T02:27:30;96003.84;;;14.19;87.54
7824;BME280;3957;48.61947800;9.05303100;2023-07-20T02:28:32;96005.50;;;14.20;87.78
7824;BME280;3957;48.61947800;9.05303100;2023-07-20T02:29:33;96007.00;;;14.16;88.25
7824;BME280;3957;48.61947800;9.05303100;2023-07-20T02:30:38;96005.81;;;14.11;88.11
7824;BME280;3957;48.61947800;9.05303100;2023-07-20T02:31:40;96005.44;;;14.08;88.06
7824;BME280;3957;48.61947800;9.05303100;2023-07-20T02:32:44;96006.25;;;14.08;87.61
7824;BME280;3957;48.61947800;9.05303100;2023-07-20T02:33:50;96001.50;;;14.10;87.97
7824;BME280;3957;48.61947800;9.05303100;2023-07-20T02:34:52;96007.56;;;14.06;88.32
7824;BME280;3957;48.61947800;9.05303100;2023-07-20T02:35:53;96004.41;;;14.09;88.26
7824;BME280;3957;48.61947800;9.05303100;2023-07-20T02:36:55;95999.50;;;14.06;88.52
7824;BME280;3957;48.61947800;9.05303100;2023-07-20T02:38:00;96006.16;;;14.03;88.57
7824;BME280;3957;48.61947800;9.05303100;2023-07-20T02:39:02;96007.75;;;14.04;88.79
7824;BME280;3957;48.61947800;9.05303100;2023-07-20T02:40:05;96000.53;;;14.05;88.38
7824;BME280;3957;48.61947800;9.05303100;2023-07-20T02:41:08;96013.16;;;14.04;88.46
7824;BME280;3957;48.61947800;9.05303100;2023-07-20T02:42:10;96010.69;;;14.03;88.66
7824;BME280;3957;48.61947800;9.05303100;2023-07-20T02:43:11;96008.91;;;13.97;89.51
7824;BME280;3957;48.61947800;9.05303100;2023-07-20T02:44:14;96016.16;;;13.96;89.45
7824;BME280;3957;48.61947800;9.05303100;2023-07-20T02:45:16;96016.16;;;13.96;89.67
7824;BME280;3957;48.61947800;9.05303100;2023-07-20T02:46:17;96017.78;;;13.97;89.24
7824;BME280;3957;48.61947800;9.05303100;2023-07-20T02:47:19;96017.22;;;13.95;89.69
7824;BME280;3957;48.61947800;9.05303100;2023-07-20T02:48:21;96019.00;;;14.01;89.38
7824;BME280;3957;48.61947800;9.05303100;2023-07-20T02:49:22;96013.47;;;13.96;89.88
7824;BME280;3957;48.61947800;9.05303100;2023-07-20T02:50:24;96014.88;;;13.99;89.55
7824;BME280;3957;48.61947800;9.05303100;2023-07-20T02:51:25;96013.47;;;13.96;89.52
7824;BME280;3957;48.61947800;9.05303100;2023-07-20T02:52:27;96007.72;;;13.92;90.38
7824;BME280;3957;48.61947800;9.05303100;2023-07-20T02:53:29;96007.97;;;13.91;90.09
7824;BME280;3957;48.61947800;9.05303100;2023-07-20T02:54:30;96010.88;;;13.89;90.50
7824;BME280;3957;48.61947800;9.05303100;2023-07-20T02:55:32;96018.09;;;13.89;90.67
7824;BME280;3957;48.61947800;9.05303100;2023-07-20T02:56:34;96017.06;;;13.90;90.37
7824;BME280;3957;48.61947800;9.05303100;2023-07-20T02:57:36;96018.50;;;13.92;90.58
7824;BME280;3957;48.61947800;9.05303100;2023-07-20T02:58:40;96015.41;;;13.89;90.80
7824;BME280;3957;48.61947800;9.05303100;2023-07-20T02:59:44;96019.16;;;13.88;91.17
7824;BME280;3957;48.61947800;9.05303100;2023-07-20T03:00:46;96013.66;;;13.83;91.40
7824;BME280;3957;48.61947800;9.05303100;2023-07-20T03:01:48;96016.09;;;13.84;91.45
7824;BME280;3957;48.61947800;9.05303100;2023-07-20T03:02:50;96014.91;;;13.80;91.47
7824;BME280;3957;48.61947800;9.05303100;2023-07-20T03:03:57;96017.00;;;13.78;92.04
7824;BME280;3957;48.61947800;9.05303100;2023-07-20T03:04:59;96012.06;;;13.75;92.42
7824;BME280;3957;48.61947800;9.05303100;2023-07-20T03:06:02;96017.91;;;13.72;92.87
7824;BME280;3957;48.61947800;9.05303100;2023-07-20T03:07:05;96013.34;;;13.72;92.38
7824;BME280;3957;48.61947800;9.05303100;2023-07-20T03:08:06;96014.53;;;13.76;92.41
7824;BME280;3957;48.61947800;9.05303100;2023-07-20T03:09:08;96018.50;;;13.74;92.82
7824;BME280;3957;48.61947800;9.05303100;2023-07-20T03:10:10;96013.72;;;13.76;92.72
7824;BME280;3957;48.61947800;9.05303100;2023-07-20T03:11:13;96015.16;;;13.78;92.28
7824;BME280;3957;48.61947800;9.05303100;2023-07-20T03:12:16;96021.00;;;13.75;92.20
7824;BME280;3957;48.61947800;9.05303100;2023-07-20T03:13:17;96017.22;;;13.76;92.37
7824;BME280;3957;48.61947800;9.05303100;2023-07-20T03:14:20;96017.09;;;13.71;92.82
7824;BME280;3957;48.61947800;9.05303100;2023-07-20T03:15:21;96024.56;;;13.69;93.30
7824;BME280;3957;48.61947800;9.05303100;2023-07-20T03:16:23;96023.06;;;13.73;92.98
7824;BME280;3957;48.61947800;9.05303100;2023-07-20T03:17:27;96019.19;;;13.69;93.43
7824;BME280;3957;48.61947800;9.05303100;2023-07-20T03:18:30;96015.44;;;13.70;93.15
7824;BME280;3957;48.61947800;9.05303100;2023-07-20T03:19:32;96022.91;;;13.68;93.41
7824;BME280;3957;48.61947800;9.05303100;2023-07-20T03:20:35;96017.00;;;13.78;92.91
7824;BME280;3957;48.61947800;9.05303100;2023-07-20T03:21:36;96013.13;;;13.74;93.01
7824;BME280;3957;48.61947800;9.05303100;2023-07-20T03:22:42;96017.22;;;13.76;92.69
7824;BME280;3957;48.61947800;9.05303100;2023-07-20T03:23:44;96018.50;;;13.74;92.93
7824;BME280;3957;48.61947800;9.05303100;2023-07-20T03:24:45;96013.50;;;13.77;92.68
7824;BME280;3957;48.61947800;9.05303100;2023-07-20T03:25:47;96021.00;;;13.75;92.78
7824;BME280;3957;48.61947800;9.05303100;2023-07-20T03:26:49;96012.91;;;13.75;93.03
7824;BME280;3957;48.61947800;9.05303100;2023-07-20T03:27:51;96020.88;;;13.82;92.64
7824;BME280;3957;48.61947800;9.05303100;2023-07-20T03:28:52;96020.28;;;13.80;92.96
7824;BME280;3957;48.61947800;9.05303100;2023-07-20T03:29:56;96015.38;;;13.77;92.77
7824;BME280;3957;48.61947800;9.05303100;2023-07-20T03:30:58;96015.59;;;13.75;93.01
7824;BME280;3957;48.61947800;9.05303100;2023-07-20T03:32:01;96028.44;;;13.73;93.53
7824;BME280;3957;48.61947800;9.05303100;2023-07-20T03:33:03;96019.19;;;13.69;93.94
7824;BME280;3957;48.61947800;9.05303100;2023-07-20T03:34:05;96026.06;;;13.65;93.76
7824;BME280;3957;48.61947800;9.05303100;2023-07-20T03:35:07;96016.94;;;13.66;93.94
7824;BME280;3957;48.61947800;9.05303100;2023-07-20T03:36:09;96027.94;;;13.65;94.25
7824;BME280;3957;48.61947800;9.05303100;2023-07-20T03:37:13;96025.25;;;13.65;94.28
7824;BME280;3957;48.61947800;9.05303100;2023-07-20T03:38:14;96026.97;;;13.59;94.84
7824;BME280;3957;48.61947800;9.05303100;2023-07-20T03:39:16;96025.78;;;13.55;95.14
7824;BME280;3957;48.61947800;9.05303100;2023-07-20T03:40:18;96025.31;;;13.58;94.65
7824;BME280;3957;48.61947800;9.05303100;2023-07-20T03:41:19;96022.25;;;13.54;94.91
7824;BME280;3957;48.61947800;9.05303100;2023-07-20T03:42:23;96031.56;;;13.52;95.36
7824;BME280;3957;48.61947800;9.05303100;2023-07-20T03:43:26;96032.19;;;13.54;95.11
7824;BME280;3957;48.61947800;9.05303100;2023-07-20T03:44:28;96024.13;;;13.54;95.58
7824;BME280;3957;48.61947800;9.05303100;2023-07-20T03:45:30;96026.19;;;13.52;95.80
7824;BME280;3957;48.61947800;9.05303100;2023-07-20T03:46:32;96021.38;;;13.60;95.73
7824;BME280;3957;48.61947800;9.05303100;2023-07-20T03:47:35;96027.38;;;13.56;95.67
7824;BME280;3957;48.61947800;9.05303100;2023-07-20T03:48:37;96026.19;;;13.52;96.02
7824;BME280;3957;48.61947800;9.05303100;2023-07-20T03:49:38;96022.47;;;13.53;96.02
7824;BME280;3957;48.61947800;9.05303100;2023-07-20T03:50:40;96027.25;;;13.51;96.09
7824;BME280;3957;48.61947800;9.05303100;2023-07-20T03:51:42;96029.28;;;13.55;95.94
7824;BME280;3957;48.61947800;9.05303100;2023-07-20T03:52:44;96038.16;;;13.56;95.70
7824;BME280;3957;48.61947800;9.05303100;2023-07-20T03:53:45;96032.13;;;13.60;95.65
7824;BME280;3957;48.61947800;9.05303100;2023-07-20T03:54:47;96033.38;;;13.58;96.24
7824;BME280;3957;48.61947800;9.05303100;2023-07-20T03:55:50;96038.91;;;13.63;95.97
7824;BME280;3957;48.61947800;9.05303100;2023-07-20T03:56:52;96035.38;;;13.63;95.99
7824;BME280;3957;48.61947800;9.05303100;2023-07-20T03:57:53;96037.84;;;13.64;95.91
7824;BME280;3957;48.61947800;9.05303100;2023-07-20T03:58:55;96038.69;;;13.65;95.90
7824;BME280;3957;48.61947800;9.05303100;2023-07-20T03:59:57;96036.97;;;13.70;95.76
7824;BME280;3957;48.61947800;9.05303100;2023-07-20T04:00:58;96035.94;;;13.71;95.58
7824;BME280;3957;48.61947800;9.05303100;2023-07-20T04:02:00;96032.09;;;13.79;94.80
7824;BME280;3957;48.61947800;9.05303100;2023-07-20T04:03:01;96029.41;;;13.79;95.44
7824;BME280;3957;48.61947800;9.05303100;2023-07-20T04:04:07;96039.72;;;13.82;95.10
7824;BME280;3957;48.61947800;9.05303100;2023-07-20T04:05:10;96033.22;;;13.90;95.00
7824;BME280;3957;48.61947800;9.05303100;2023-07-20T04:06:11;96035.66;;;13.91;94.79
7824;BME280;3957;48.61947800;9.05303100;2023-07-20T04:07:15;96037.00;;;14.01;94.25
7824;BME280;3957;48.61947800;9.05303100;2023-07-20T04:08:17;96036.06;;;13.95;94.56
7824;BME280;3957;48.61947800;9.05303100;2023-07-20T04:09:18;96032.28;;;13.96;94.50
7824;BME280;3957;48.61947800;9.05303100;2023-07-20T04:10:20;96034.16;;;13.95;94.42
7824;BME280;3957;48.61947800;9.05303100;2023-07-20T04:11:26;96038.50;;;13.97;94.47
7824;BME280;3957;48.61947800;9.05303100;2023-07-20T04:12:27;96039.47;;;14.02;94.12
7824;BME280;3957;48.61947800;9.05303100;2023-07-20T04:13:29;96035.06;;;14.08;93.94
7824;BME280;3957;48.61947800;9.05303100;2023-07-20T04:14:34;96036.63;;;14.16;93.64
7824;BME280;3957;48.61947800;9.05303100;2023-07-20T04:15:36;96040.94;;;14.17;93.02
7824;BME280;3957;48.61947800;9.05303100;2023-07-20T04:16:37;96038.63;;;14.20;92.93
7824;BME280;3957;48.61947800;9.05303100;2023-07-20T04:17:40;96044.94;;;14.26;92.33
7824;BME280;3957;48.61947800;9.05303100;2023-07-20T04:18:42;96047.78;;;14.31;92.28
7824;BME280;3957;48.61947800;9.05303100;2023-07-20T04:19:43;96044.78;;;14.39;91.97
7824;BME280;3957;48.61947800;9.05303100;2023-07-20T04:20:45;96042.56;;;14.36;91.94
7824;BME280;3957;48.61947800;9.05303100;2023-07-20T04:21:47;96042.09;;;14.39;91.88
7824;BME280;3957;48.61947800;9.05303100;2023-07-20T04:22:48;96040.19;;;14.40;91.64
7824;BME280;3957;48.61947800;9.05303100;2023-07-20T04:23:51;96042.34;;;14.50;91.20
7824;BME280;3957;48.61947800;9.05303100;2023-07-20T04:24:53;96035.75;;;14.64;90.72
7824;BME280;3957;48.61947800;9.05303100;2023-07-20T04:25:54;96031.91;;;14.84;89.73
7824;BME280;3957;48.61947800;9.05303100;2023-07-20T04:26:56;96035.00;;;15.11;88.59
7824;BME280;3957;48.61947800;9.05303100;2023-07-20T04:27:57;96040.13;;;15.24;86.80
7824;BME280;3957;48.61947800;9.05303100;2023-07-20T04:28:59;96038.38;;;15.54;85.76
7824;BME280;3957;48.61947800;9.05303100;2023-07-20T04:30:13;96035.66;;;15.65;84.50
7824;BME280;3957;48.61947800;9.05303100;2023-07-20T04:31:15;96037.50;;;15.77;83.53
7824;BME280;3957;48.61947800;9.05303100;2023-07-20T04:32:18;96031.41;;;15.70;83.27
7824;BME280;3957;48.61947800;9.05303100;2023-07-20T04:33:19;96039.75;;;15.68;82.97
7824;BME280;3957;48.61947800;9.05303100;2023-07-20T04:34:21;96039.19;;;15.54;83.75
7824;BME280;3957;48.61947800;9.05303100;2023-07-20T04:35:49;96044.00;;;15.28;85.22
7824;BME280;3957;48.61947800;9.05303100;2023-07-20T04:36:54;96041.53;;;15.27;85.39
7824;BME280;3957;48.61947800;9.05303100;2023-07-20T04:37:57;96041.22;;;15.23;85.55
7824;BME280;3957;48.61947800;9.05303100;2023-07-20T04:39:00;96046.34;;;15.13;86.34
7824;BME280;3957;48.61947800;9.05303100;2023-07-20T04:40:08;96040.94;;;15.13;86.44
7824;BME280;3957;48.61947800;9.05303100;2023-07-20T04:41:10;96042.84;;;15.12;87.40
7824;BME280;3957;48.61947800;9.05303100;2023-07-20T04:42:16;96036.38;;;15.25;86.31
7824;BME280;3957;48.61947800;9.05303100;2023-07-20T04:43:18;96042.13;;;15.29;86.04
7824;BME280;3957;48.61947800;9.05303100;2023-07-20T04:44:20;96039.56;;;15.22;86.34
7824;BME280;3957;48.61947800;9.05303100;2023-07-20T04:45:22;96034.97;;;15.23;86.16
7824;BME280;3957;48.61947800;9.05303100;2023-07-20T04:46:25;96039.56;;;15.22;86.58
7824;BME280;3957;48.61947800;9.05303100;2023-07-20T04:47:28;96041.66;;;15.32;86.36
7824;BME280;3957;48.61947800;9.05303100;2023-07-20T04:48:30;96035.19;;;15.57;86.07
7824;BME280;3957;48.61947800;9.05303100;2023-07-20T04:49:32;96046.44;;;15.77;85.34
7824;BME280;3957;48.61947800;9.05303100;2023-07-20T04:50:34;96045.97;;;15.92;84.08
7824;BME280;3957;48.61947800;9.05303100;2023-07-20T04:51:35;96042.88;;;16.01;83.21
7824;BME280;3957;48.61947800;9.05303100;2023-07-20T04:52:37;96046.63;;;16.00;83.71
7824;BME280;3957;48.61947800;9.05303100;2023-07-20T04:53:47;96045.13;;;15.92;83.23
7824;BME280;3957;48.61947800;9.05303100;2023-07-20T04:54:49;96039.03;;;15.85;83.87
7824;BME280;3957;48.61947800;9.05303100;2023-07-20T04:55:50;96046.91;;;15.86;84.03
7824;BME280;3957;48.61947800;9.05303100;2023-07-20T04:56:54;96044.31;;;15.91;83.53
7824;BME280;3957;48.61947800;9.05303100;2023-07-20T04:57:56;96047.91;;;16.09;82.74
7824;BME280;3957;48.61947800;9.05303100;2023-07-20T04:58:59;96048.91;;;16.20;82.15
7824;BME280;3957;48.61947800;9.05303100;2023-07-20T05:00:01;96048.25;;;16.41;81.00
7824;BME280;3957;48.61947800;9.05303100;2023-07-20T05:01:02;96042.34;;;16.44;80.57
7824;BME280;3957;48.61947800;9.05303100;2023-07-20T05:02:05;96048.03;;;16.60;80.51
7824;BME280;3957;48.61947800;9.05303100;2023-07-20T05:03:07;96048.31;;;16.75;79.41
7824;BME280;3957;48.61947800;9.05303100;2023-07-20T05:04:09;96043.91;;;17.20;78.38
7824;BME280;3957;48.61947800;9.05303100;2023-07-20T05:05:11;96046.75;;;17.47;76.81
7824;BME280;3957;48.61947800;9.05303100;2023-07-20T05:06:13;96045.97;;;17.69;75.12